sensor_id;sensor_type;location;lat;lon;timestamp;pressure;altitude;pressure_sealevel;temperature;humidity
9774;BME280;4926;42.670;23.316;2024-02-04T00:00:19;94924.53;;;7.27;55.46
9774;BME280;4926;42.670;23.316;2024-02-04T00:02:48;94917.66;;;7.30;55.20
9774;BME280;4926;42.670;23.316;2024-02-04T00:05:16;94916.91;;;7.28;55.80
9774;BME280;4926;42.670;23.316;2024-02-04T00:07:43;94919.56;;;7.24;56.13
9774;BME280;4926;42.670;23.316;2024-02-04T00:10:18;94921.81;;;7.29;55.52
9774;BME280;4926;42.670;23.316;2024-02-04T00:12:44;94924.34;;;7.21;55.71
9774;BME280;4926;42.670;23.316;2024-02-04T00:15:10;94917.44;;;7.22;57.09
9774;BME280;4926;42.670;23.316;2024-02-04T00:17:35;94921.69;;;7.25;56.27
9774;BME280;4926;42.670;23.316;2024-02-04T00:20:05;94919.44;;;7.20;57.00
9774;BME280;4926;42.670;23.316;2024-02-04T00:22:32;94923.69;;;7.23;56.86
9774;BME280;4926;42.670;23.316;2024-02-04T00:24:59;94929.00;;;7.15;57.51
9774;BME280;4926;42.670;23.316;2024-02-04T00:27:30;94909.59;;;7.15;57.47
9774;BME280;4926;42.670;23.316;2024-02-04T00:29:56;94910.09;;;7.09;56.73
9774;BME280;4926;42.670;23.316;2024-02-04T00:32:25;94905.31;;;7.11;56.75
9774;BME280;4926;42.670;23.316;2024-02-04T00:34:51;94916.34;;;7.09;56.89
9774;BME280;4926;42.670;23.316;2024-02-04T00:37:16;94914.34;;;7.12;56.92
9774;BME280;4926;42.670;23.316;2024-02-04T00:39:42;94921.31;;;7.13;57.14
9774;BME280;4926;42.670;23.316;2024-02-04T00:42:07;94925.56;;;7.16;57.50
9774;BME280;4926;42.670;23.316;2024-02-04T00:44:35;94908.88;;;7.14;58.01
9774;BME280;4926;42.670;23.316;2024-02-04T00:47:01;94902.69;;;7.16;57.05
9774;BME280;4926;42.670;23.316;2024-02-04T00:49:26;94909.03;;;7.20;56.72
9774;BME280;4926;42.670;23.316;2024-02-04T00:51:52;94904.78;;;7.17;56.76
9774;BME280;4926;42.670;23.316;2024-02-04T00:54:18;94901.97;;;7.15;57.04
9774;BME280;4926;42.670;23.316;2024-02-04T00:56:43;94903.56;;;7.22;57.82
9774;BME280;4926;42.670;23.316;2024-02-04T00:59:12;94902.03;;;7.17;58.31
9774;BME280;4926;42.670;23.316;2024-02-04T01:01:38;94901.50;;;7.23;57.81
9774;BME280;4926;42.670;23.316;2024-02-04T01:04:04;94901.38;;;7.19;57.83
9774;BME280;4926;42.670;23.316;2024-02-04T01:06:29;94904.34;;;7.25;58.46
9774;BME280;4926;42.670;23.316;2024-02-04T01:08:58;94906.81;;;7.15;58.46
9774;BME280;4926;42.670;23.316;2024-02-04T01:11:24;94903.50;;;7.20;58.21
9774;BME280;4926;42.670;23.316;2024-02-04T01:13:49;94907.69;;;7.21;57.67
9774;BME280;4926;42.670;23.316;2024-02-04T01:16:15;94905.63;;;7.22;58.62
9774;BME280;4926;42.670;23.316;2024-02-04T01:18:43;94912.59;;;7.23;59.42
9774;BME280;4926;42.670;23.316;2024-02-04T01:21:17;94910.59;;;7.25;59.31
9774;BME280;4926;42.670;23.316;2024-02-04T01:23:43;94906.34;;;7.22;59.41
9774;BME280;4926;42.670;23.316;2024-02-04T01:26:08;94911.44;;;7.30;58.30
9774;BME280;4926;42.670;23.316;2024-02-04T01:28:34;94906.41;;;7.24;58.43
9774;BME280;4926;42.670;23.316;2024-02-04T01:31:00;94901.56;;;7.25;59.14
9774;BME280;4926;42.670;23.316;2024-02-04T01:33:26;94895.19;;;7.20;58.72
9774;BME280;4926;42.670;23.316;2024-02-04T01:35:51;94893.88;;;7.23;59.87
9774;BME280;4926;42.670;23.316;2024-02-04T01:38:17;94884.09;;;7.20;59.67
9774;BME280;4926;42.670;23.316;2024-02-04T01:40:43;94884.28;;;7.26;59.32
9774;BME280;4926;42.670;23.316;2024-02-04T01:43:08;94887.13;;;7.28;59.66
9774;BME280;4926;42.670;23.316;2024-02-04T01:45:34;94888.53;;;7.29;59.46
9774;BME280;4926;42.670;23.316;2024-02-04T01:47:59;94871.91;;;7.29;59.82
9774;BME280;4926;42.670;23.316;2024-02-04T01:50:25;94873.91;;;7.27;58.73
9774;BME280;4926;42.670;23.316;2024-02-04T01:52:52;94873.25;;;7.28;60.10
9774;BME280;4926;42.670;23.316;2024-02-04T01:55:18;94871.94;;;7.31;59.28
9774;BME280;4926;42.670;23.316;2024-02-04T01:57:44;94881.81;;;7.36;59.47
9774;BME280;4926;42.670;23.316;2024-02-04T02:00:10;94873.53;;;7.38;60.17
9774;BME280;4926;42.670;23.316;2024-02-04T02:02:39;94862.56;;;7.42;59.97
9774;BME280;4926;42.670;23.316;2024-02-04T02:05:06;94867.28;;;7.38;59.51
9774;BME280;4926;42.670;23.316;2024-02-04T02:07:31;94881.94;;;7.40;59.86
9774;BME280;4926;42.670;23.316;2024-02-04T02:09:57;94877.88;;;7.45;59.76
9774;BME280;4926;42.670;23.316;2024-02-04T02:12:25;94870.94;;;7.44;60.40
9774;BME280;4926;42.670;23.316;2024-02-04T02:15:15;94872.34;;;7.45;59.81
9774;BME280;4926;42.670;23.316;2024-02-04T02:18:03;94869.56;;;7.45;58.96
9774;BME280;4926;42.670;23.316;2024-02-04T02:23:14;94865.69;;;7.55;59.08
9774;BME280;4926;42.670;23.316;2024-02-04T02:25:47;94853.22;;;7.56;60.02
9774;BME280;4926;42.670;23.316;2024-02-04T02:28:13;94862.03;;;7.48;58.69
9774;BME280;4926;42.670;23.316;2024-02-04T02:30:39;94865.63;;;7.53;58.65
9774;BME280;4926;42.670;23.316;2024-02-04T02:33:05;94867.63;;;7.50;59.09
9774;BME280;4926;42.670;23.316;2024-02-04T02:35:33;94859.94;;;7.48;59.90
9774;BME280;4926;42.670;23.316;2024-02-04T02:41:04;94869.25;;;7.59;58.68
9774;BME280;4926;42.670;23.316;2024-02-04T02:43:33;94869.81;;;7.54;58.97
9774;BME280;4926;42.670;23.316;2024-02-04T02:46:02;94856.72;;;7.56;59.37
9774;BME280;4926;42.670;23.316;2024-02-04T02:48:28;94847.75;;;7.58;58.03
9774;BME280;4926;42.670;23.316;2024-02-04T02:50:56;94851.97;;;7.61;58.27
9774;BME280;4926;42.670;23.316;2024-02-04T02:53:23;94858.28;;;7.63;59.12
9774;BME280;4926;42.670;23.316;2024-02-04T02:55:48;94843.75;;;7.65;58.99
9774;BME280;4926;42.670;23.316;2024-02-04T02:58:14;94857.50;;;7.61;59.32
9774;BME280;4926;42.670;23.316;2024-02-04T03:00:39;94850.59;;;7.62;59.34
9774;BME280;4926;42.670;23.316;2024-02-04T03:03:05;94843.75;;;7.65;59.06
9774;BME280;4926;42.670;23.316;2024-02-04T03:05:34;94844.47;;;7.65;57.69
9774;BME280;4926;42.670;23.316;2024-02-04T03:07:59;94845.31;;;7.70;58.98
9774;BME280;4926;42.670;23.316;2024-02-04T03:10:25;94849.53;;;7.73;58.14
9774;BME280;4926;42.670;23.316;2024-02-04T03:12:50;94843.97;;;7.73;58.78
9774;BME280;4926;42.670;23.316;2024-02-04T03:15:16;94837.78;;;7.74;58.77
9774;BME280;4926;42.670;23.316;2024-02-04T03:17:44;94846.09;;;7.74;57.87
9774;BME280;4926;42.670;23.316;2024-02-04T03:20:10;94829.38;;;7.72;57.35
9774;BME280;4926;42.670;23.316;2024-02-04T03:22:36;94827.56;;;7.81;58.56
9774;BME280;4926;42.670;23.316;2024-02-04T03:25:04;94838.78;;;7.85;58.70
9774;BME280;4926;42.670;23.316;2024-02-04T03:27:32;94828.31;;;7.83;57.98
9774;BME280;4926;42.670;23.316;2024-02-04T03:29:58;94843.13;;;7.92;58.51
9774;BME280;4926;42.670;23.316;2024-02-04T03:32:26;94822.81;;;7.86;57.94
9774;BME280;4926;42.670;23.316;2024-02-04T03:34:52;94827.94;;;7.95;57.73
9774;BME280;4926;42.670;23.316;2024-02-04T03:37:17;94821.00;;;7.96;57.75
9774;BME280;4926;42.670;23.316;2024-02-04T03:39:42;94818.78;;;7.91;57.89
9774;BME280;4926;42.670;23.316;2024-02-04T03:42:08;94817.59;;;7.98;58.89
9774;BME280;4926;42.670;23.316;2024-02-04T03:44:33;94810.69;;;8.01;57.59
9774;BME280;4926;42.670;23.316;2024-02-04T03:46:59;94795.38;;;7.98;58.19
9774;BME280;4926;42.670;23.316;2024-02-04T03:49:27;94789.75;;;7.96;57.57
9774;BME280;4926;42.670;23.316;2024-02-04T03:51:52;94807.03;;;7.92;58.69
9774;BME280;4926;42.670;23.316;2024-02-04T03:54:39;94797.97;;;7.92;58.92
9774;BME280;4926;42.670;23.316;2024-02-04T03:57:04;94796.69;;;7.95;58.76
9774;BME280;4926;42.670;23.316;2024-02-04T03:59:30;94803.00;;;7.97;58.48
9774;BME280;4926;42.670;23.316;2024-02-04T04:01:55;94817.41;;;7.92;59.36
9774;BME280;4926;42.670;23.316;2024-02-04T04:04:23;94822.31;;;7.93;59.19
9774;BME280;4926;42.670;23.316;2024-02-04T04:06:48;94829.78;;;7.87;59.88
9774;BME280;4926;42.670;23.316;2024-02-04T04:09:14;94842.47;;;7.94;59.91
9774;BME280;4926;42.670;23.316;2024-02-04T04:11:40;94832.59;;;7.89;59.24
9774;BME280;4926;42.670;23.316;2024-02-04T04:14:05;94843.16;;;7.94;59.19
9774;BME280;4926;42.670;23.316;2024-02-04T04:16:31;94827.94;;;7.95;59.25
9774;BME280;4926;42.670;23.316;2024-02-04T04:18:57;94817.66;;;8.00;59.35
9774;BME280;4926;42.670;23.316;2024-02-04T04:21:23;94809.09;;;7.92;59.36
9774;BME280;4926;42.670;23.316;2024-02-04T04:23:49;94806.47;;;7.98;59.63
9774;BME280;4926;42.670;23.316;2024-02-04T04:26:14;94812.75;;;7.98;59.37
9774;BME280;4926;42.670;23.316;2024-02-04T04:28:40;94821.06;;;7.98;59.21
9774;BME280;4926;42.670;23.316;2024-02-04T04:31:05;94825.22;;;7.97;59.76
9774;BME280;4926;42.670;23.316;2024-02-04T04:33:31;94816.88;;;7.97;59.40
9774;BME280;4926;42.670;23.316;2024-02-04T04:35:57;94820.19;;;7.92;59.30
9774;BME280;4926;42.670;23.316;2024-02-04T04:38:22;94829.44;;;8.00;59.38
9774;BME280;4926;42.670;23.316;2024-02-04T04:40:47;94828.00;;;7.97;59.43
9774;BME280;4926;42.670;23.316;2024-02-04T04:43:13;94823.22;;;8.02;59.48
9774;BME280;4926;42.670;23.316;2024-02-04T04:45:40;94824.66;;;8.03;59.16
9774;BME280;4926;42.670;23.316;2024-02-04T04:48:06;94815.59;;;8.02;60.11
9774;BME280;4926;42.670;23.316;2024-02-04T04:50:35;94828.25;;;8.07;60.34
9774;BME280;4926;42.670;23.316;2024-02-04T04:53:03;94839.47;;;8.11;60.34
9774;BME280;4926;42.670;23.316;2024-02-04T04:55:32;94827.13;;;8.18;58.47
9774;BME280;4926;42.670;23.316;2024-02-04T04:57:57;94829.91;;;8.18;58.59
9774;BME280;4926;42.670;23.316;2024-02-04T05:00:23;94832.03;;;8.20;58.21
9774;BME280;4926;42.670;23.316;2024-02-04T05:02:49;94824.47;;;8.23;59.18
9774;BME280;4926;42.670;23.316;2024-02-04T05:05:20;94837.00;;;8.24;58.22
9774;BME280;4926;42.670;23.316;2024-02-04T05:07:45;94832.78;;;8.23;58.81
9774;BME280;4926;42.670;23.316;2024-02-04T05:10:12;94826.53;;;8.22;59.16
9774;BME280;4926;42.670;23.316;2024-02-04T05:12:37;94826.47;;;8.20;58.83
9774;BME280;4926;42.670;23.316;2024-02-04T05:15:04;94821.09;;;8.26;58.28
9774;BME280;4926;42.670;23.316;2024-02-04T05:17:30;94815.56;;;8.28;57.65
9774;BME280;4926;42.670;23.316;2024-02-04T05:19:55;94829.44;;;8.28;58.27
9774;BME280;4926;42.670;23.316;2024-02-04T05:22:21;94825.16;;;8.23;59.03
9774;BME280;4926;42.670;23.316;2024-02-04T05:24:46;94832.22;;;8.28;58.28
9774;BME280;4926;42.670;23.316;2024-02-04T05:27:13;94827.94;;;8.23;58.23
9774;BME280;4926;42.670;23.316;2024-02-04T05:29:39;94831.38;;;8.22;58.64
9774;BME280;4926;42.670;23.316;2024-02-04T05:32:04;94832.78;;;8.23;58.03
9774;BME280;4926;42.670;23.316;2024-02-04T05:34:30;94824.47;;;8.23;57.54
9774;BME280;4926;42.670;23.316;2024-02-04T05:36:59;94827.28;;;8.25;58.35
9774;BME280;4926;42.670;23.316;2024-02-04T05:39:24;94806.31;;;8.19;57.98
9774;BME280;4926;42.670;23.316;2024-02-04T05:41:50;94823.03;;;8.22;57.38
9774;BME280;4926;42.670;23.316;2024-02-04T05:44:15;94828.59;;;8.22;57.25
9774;BME280;4926;42.670;23.316;2024-02-04T05:46:41;94836.34;;;8.25;57.95
9774;BME280;4926;42.670;23.316;2024-02-04T05:49:06;94825.28;;;8.27;57.59
9774;BME280;4926;42.670;23.316;2024-02-04T05:51:37;94839.13;;;8.25;57.49
9774;BME280;4926;42.670;23.316;2024-02-04T05:54:02;94832.94;;;8.29;56.99
9774;BME280;4926;42.670;23.316;2024-02-04T05:56:28;94837.75;;;8.26;57.01
9774;BME280;4926;42.670;23.316;2024-02-04T05:58:53;94839.81;;;8.26;56.41
9774;BME280;4926;42.670;23.316;2024-02-04T06:01:19;94848.09;;;8.24;57.32
9774;BME280;4926;42.670;23.316;2024-02-04T06:03:47;94850.94;;;8.26;55.85
9774;BME280;4926;42.670;23.316;2024-02-04T06:06:15;94851.00;;;8.30;56.22
9774;BME280;4926;42.670;23.316;2024-02-04T06:08:42;94849.41;;;8.21;57.36
9774;BME280;4926;42.670;23.316;2024-02-04T06:11:11;94855.88;;;8.29;56.64
9774;BME280;4926;42.670;23.316;2024-02-04T06:13:39;94849.50;;;8.25;57.08
9774;BME280;4926;42.670;23.316;2024-02-04T06:16:04;94858.69;;;8.31;57.48
9774;BME280;4926;42.670;23.316;2024-02-04T06:18:30;94867.69;;;8.30;56.59
9774;BME280;4926;42.670;23.316;2024-02-04T06:20:55;94876.00;;;8.28;57.11
9774;BME280;4926;42.670;23.316;2024-02-04T06:23:21;94873.16;;;8.26;57.38
9774;BME280;4926;42.670;23.316;2024-02-04T06:25:46;94864.25;;;8.31;56.80
9774;BME280;4926;42.670;23.316;2024-02-04T06:28:13;94882.41;;;8.34;56.24
9774;BME280;4926;42.670;23.316;2024-02-04T06:30:38;94890.16;;;8.38;55.81
9774;BME280;4926;42.670;23.316;2024-02-04T06:33:04;94899.16;;;8.36;57.14
9774;BME280;4926;42.670;23.316;2024-02-04T06:35:29;94889.44;;;8.37;58.33
9774;BME280;4926;42.670;23.316;2024-02-04T06:37:58;94900.72;;;8.43;57.71
9774;BME280;4926;42.670;23.316;2024-02-04T06:40:24;94897.31;;;8.47;56.45
9774;BME280;4926;42.670;23.316;2024-02-04T06:42:49;94897.31;;;8.47;57.03
9774;BME280;4926;42.670;23.316;2024-02-04T06:45:16;94891.81;;;8.49;56.21
9774;BME280;4926;42.670;23.316;2024-02-04T06:47:44;94893.06;;;8.44;56.00
9774;BME280;4926;42.670;23.316;2024-02-04T06:50:12;94900.94;;;8.51;56.71
9774;BME280;4926;42.670;23.316;2024-02-04T06:52:46;94894.66;;;8.51;56.19
9774;BME280;4926;42.670;23.316;2024-02-04T06:55:11;94884.97;;;8.52;57.02
9774;BME280;4926;42.670;23.316;2024-02-04T06:57:37;94898.16;;;8.51;56.44
9774;BME280;4926;42.670;23.316;2024-02-04T07:00:03;94893.84;;;8.46;56.90
9774;BME280;4926;42.670;23.316;2024-02-04T07:02:31;94900.94;;;8.51;56.68
9774;BME280;4926;42.670;23.316;2024-02-04T07:04:57;94894.78;;;8.57;56.33
9774;BME280;4926;42.670;23.316;2024-02-04T07:07:22;94891.88;;;8.51;57.33
9774;BME280;4926;42.670;23.316;2024-02-04T07:09:51;94893.31;;;8.52;56.27
9774;BME280;4926;42.670;23.316;2024-02-04T07:12:16;94902.19;;;8.46;56.80
9774;BME280;4926;42.670;23.316;2024-02-04T07:14:44;94894.56;;;8.47;57.11
9774;BME280;4926;42.670;23.316;2024-02-04T07:17:10;94914.16;;;8.53;56.61
9774;BME280;4926;42.670;23.316;2024-02-04T07:19:37;94900.28;;;8.53;57.26
9774;BME280;4926;42.670;23.316;2024-02-04T07:22:03;94910.75;;;8.57;56.76
9774;BME280;4926;42.670;23.316;2024-02-04T07:24:28;94908.09;;;8.61;57.48
9774;BME280;4926;42.670;23.316;2024-02-04T07:26:54;94903.09;;;8.55;56.75
9774;BME280;4926;42.670;23.316;2024-02-04T07:29:19;94901.63;;;8.52;57.33
9774;BME280;4926;42.670;23.316;2024-02-04T07:31:45;94898.97;;;8.56;56.81
9774;BME280;4926;42.670;23.316;2024-02-04T07:34:10;94896.19;;;8.56;56.29
9774;BME280;4926;42.670;23.316;2024-02-04T07:36:36;94896.44;;;8.66;56.84
9774;BME280;4926;42.670;23.316;2024-02-04T07:39:02;94899.25;;;8.68;56.52
9774;BME280;4926;42.670;23.316;2024-02-04T07:41:29;94902.94;;;8.77;56.51
9774;BME280;4926;42.670;23.316;2024-02-04T07:43:55;94889.91;;;8.83;55.45
9774;BME280;4926;42.670;23.316;2024-02-04T07:46:21;94897.97;;;8.73;55.59
9774;BME280;4926;42.670;23.316;2024-02-04T07:48:46;94901.56;;;8.78;54.75
9774;BME280;4926;42.670;23.316;2024-02-04T07:51:12;94900.22;;;8.79;55.09
9774;BME280;4926;42.670;23.316;2024-02-04T07:53:38;94911.53;;;8.87;55.24
9774;BME280;4926;42.670;23.316;2024-02-04T07:56:03;94900.69;;;8.99;54.82
9774;BME280;4926;42.670;23.316;2024-02-04T07:58:32;94905.16;;;9.12;53.52
9774;BME280;4926;42.670;23.316;2024-02-04T08:00:57;94905.06;;;9.38;52.68
9774;BME280;4926;42.670;23.316;2024-02-04T08:03:23;94911.09;;;9.60;52.09
9774;BME280;4926;42.670;23.316;2024-02-04T08:05:48;94908.28;;;9.58;52.09
9774;BME280;4926;42.670;23.316;2024-02-04T08:08:14;94914.38;;;9.85;52.33
9774;BME280;4926;42.670;23.316;2024-02-04T08:10:39;94909.09;;;9.99;50.69
9774;BME280;4926;42.670;23.316;2024-02-04T08:13:08;94904.13;;;9.93;50.18
9774;BME280;4926;42.670;23.316;2024-02-04T08:15:34;94906.22;;;9.93;50.38
9774;BME280;4926;42.670;23.316;2024-02-04T08:18:00;94910.22;;;9.86;51.58
9774;BME280;4926;42.670;23.316;2024-02-04T08:20:25;94909.69;;;10.27;49.49
9774;BME280;4926;42.670;23.316;2024-02-04T08:22:54;94907.84;;;10.80;49.17
9774;BME280;4926;42.670;23.316;2024-02-04T08:25:19;94904.50;;;11.34;47.32
9774;BME280;4926;42.670;23.316;2024-02-04T08:27:45;94897.94;;;11.63;46.18
9774;BME280;4926;42.670;23.316;2024-02-04T08:30:11;94897.50;;;11.83;46.09
9774;BME280;4926;42.670;23.316;2024-02-04T08:32:37;94905.59;;;11.63;45.42
9774;BME280;4926;42.670;23.316;2024-02-04T08:35:04;94882.91;;;11.36;47.05
9774;BME280;4926;42.670;23.316;2024-02-04T08:37:29;94893.13;;;11.20;46.65
9774;BME280;4926;42.670;23.316;2024-02-04T08:39:55;94886.31;;;10.87;47.23
9774;BME280;4926;42.670;23.316;2024-02-04T08:42:23;94889.75;;;10.83;48.43
9774;BME280;4926;42.670;23.316;2024-02-04T08:44:49;94886.50;;;10.57;49.16
9774;BME280;4926;42.670;23.316;2024-02-04T08:47:14;94877.84;;;10.39;48.80
9774;BME280;4926;42.670;23.316;2024-02-04T08:49:42;94892.41;;;10.35;48.61
9774;BME280;4926;42.670;23.316;2024-02-04T08:52:07;94895.06;;;10.29;49.37
9774;BME280;4926;42.670;23.316;2024-02-04T08:54:33;94912.38;;;10.21;49.25
9774;BME280;4926;42.670;23.316;2024-02-04T08:57:01;94919.31;;;10.20;49.76
9774;BME280;4926;42.670;23.316;2024-02-04T08:59:26;94899.66;;;10.14;50.20
9774;BME280;4926;42.670;23.316;2024-02-04T09:01:52;94880.63;;;10.03;50.72
9774;BME280;4926;42.670;23.316;2024-02-04T09:04:17;94906.38;;;10.01;50.84
9774;BME280;4926;42.670;23.316;2024-02-04T09:06:43;94900.69;;;9.95;50.64
9774;BME280;4926;42.670;23.316;2024-02-04T09:09:11;94905.22;;;9.78;51.21
9774;BME280;4926;42.670;23.316;2024-02-04T09:11:37;94907.50;;;9.88;51.53
9774;BME280;4926;42.670;23.316;2024-02-04T09:14:02;94910.94;;;9.86;50.68
9774;BME280;4926;42.670;23.316;2024-02-04T09:16:29;94926.16;;;9.81;50.93
9774;BME280;4926;42.670;23.316;2024-02-04T09:18:54;94919.03;;;9.74;50.71
9774;BME280;4926;42.670;23.316;2024-02-04T09:21:20;94911.84;;;9.63;52.02
9774;BME280;4926;42.670;23.316;2024-02-04T09:23:47;94922.91;;;9.59;52.62
9774;BME280;4926;42.670;23.316;2024-02-04T09:26:12;94927.00;;;9.56;52.28
9774;BME280;4926;42.670;23.316;2024-02-04T09:28:38;94931.03;;;9.49;51.84
9774;BME280;4926;42.670;23.316;2024-02-04T09:31:03;94934.63;;;9.53;52.22
9774;BME280;4926;42.670;23.316;2024-02-04T09:33:35;94943.53;;;9.48;52.59
9774;BME280;4926;42.670;23.316;2024-02-04T09:36:03;94935.84;;;9.46;52.68
9774;BME280;4926;42.670;23.316;2024-02-04T09:38:29;94934.69;;;9.57;53.23
9774;BME280;4926;42.670;23.316;2024-02-04T09:40:55;94929.38;;;9.70;53.71
9774;BME280;4926;42.670;23.316;2024-02-04T09:43:25;94922.69;;;9.83;53.21
9774;BME280;4926;42.670;23.316;2024-02-04T09:45:51;94925.78;;;9.97;52.62
9774;BME280;4926;42.670;23.316;2024-02-04T09:48:18;94924.63;;;10.08;51.95
9774;BME280;4926;42.670;23.316;2024-02-04T09:50:45;94929.63;;;10.16;51.81
9774;BME280;4926;42.670;23.316;2024-02-04T09:53:14;94935.22;;;10.16;52.22
9774;BME280;4926;42.670;23.316;2024-02-04T09:55:40;94937.75;;;10.04;52.47
9774;BME280;4926;42.670;23.316;2024-02-04T09:58:07;94918.31;;;10.06;52.54
9774;BME280;4926;42.670;23.316;2024-02-04T10:00:33;94922.66;;;10.15;53.02
9774;BME280;4926;42.670;23.316;2024-02-04T10:02:59;94909.69;;;10.27;52.44
9774;BME280;4926;42.670;23.316;2024-02-04T10:05:26;94901.34;;;10.29;52.47
9774;BME280;4926;42.670;23.316;2024-02-04T10:07:51;94922.69;;;10.17;53.72
9774;BME280;4926;42.670;23.316;2024-02-04T10:10:20;94917.78;;;10.15;54.03
9774;BME280;4926;42.670;23.316;2024-02-04T10:12:48;94919.06;;;10.08;53.58
9774;BME280;4926;42.670;23.316;2024-02-04T10:15:14;94917.56;;;10.03;53.41
9774;BME280;4926;42.670;23.316;2024-02-04T10:17:47;94928.50;;;9.93;54.29
9774;BME280;4926;42.670;23.316;2024-02-04T10:20:13;94925.91;;;10.03;53.57
9774;BME280;4926;42.670;23.316;2024-02-04T10:22:38;94930.03;;;10.00;54.23
9774;BME280;4926;42.670;23.316;2024-02-04T10:25:10;94941.06;;;9.94;54.24
9774;BME280;4926;42.670;23.316;2024-02-04T10:27:41;94941.25;;;10.04;53.66
9774;BME280;4926;42.670;23.316;2024-02-04T10:30:08;94935.81;;;10.10;53.36
9774;BME280;4926;42.670;23.316;2024-02-04T10:32:34;94929.59;;;10.14;53.88
9774;BME280;4926;42.670;23.316;2024-02-04T10:35:00;94925.34;;;10.11;53.64
9774;BME280;4926;42.670;23.316;2024-02-04T10:37:29;94921.13;;;10.08;54.50
9774;BME280;4926;42.670;23.316;2024-02-04T10:39:55;94919.06;;;10.08;53.93
9774;BME280;4926;42.670;23.316;2024-02-04T10:42:27;94924.53;;;10.04;54.48
9774;BME280;4926;42.670;23.316;2024-02-04T10:44:57;94909.75;;;9.98;54.84
9774;BME280;4926;42.670;23.316;2024-02-04T10:47:30;94932.75;;;9.96;54.60
9774;BME280;4926;42.670;23.316;2024-02-04T10:49:58;94913.25;;;9.96;54.54
9774;BME280;4926;42.670;23.316;2024-02-04T10:52:28;94920.34;;;10.03;55.15
9774;BME280;4926;42.670;23.316;2024-02-04T10:54:55;94912.72;;;10.06;54.49
9774;BME280;4926;42.670;23.316;2024-02-04T10:57:21;94913.25;;;9.98;54.86
9774;BME280;4926;42.670;23.316;2024-02-04T10:59:52;94917.41;;;9.97;54.05
9774;BME280;4926;42.670;23.316;2024-02-04T11:02:19;94920.00;;;9.87;55.29
9774;BME280;4926;42.670;23.316;2024-02-04T11:04:48;94914.53;;;9.91;54.17
9774;BME280;4926;42.670;23.316;2024-02-04T11:07:14;94907.69;;;9.96;55.03
9774;BME280;4926;42.670;23.316;2024-02-04T11:09:41;94911.94;;;10.01;54.37
9774;BME280;4926;42.670;23.316;2024-02-04T11:12:11;94909.19;;;10.03;54.98
9774;BME280;4926;42.670;23.316;2024-02-04T11:14:41;94909.31;;;10.09;54.67
9774;BME280;4926;42.670;23.316;2024-02-04T11:27:45;94901.34;;;10.29;54.26
9774;BME280;4926;42.670;23.316;2024-02-04T11:30:11;94893.66;;;10.28;53.86
9774;BME280;4926;42.670;23.316;2024-02-04T11:32:37;94904.16;;;10.29;54.06
9774;BME280;4926;42.670;23.316;2024-02-04T11:35:03;94887.31;;;10.23;53.37
9774;BME280;4926;42.670;23.316;2024-02-04T11:37:32;94883.16;;;10.24;53.38
9774;BME280;4926;42.670;23.316;2024-02-04T11:39:58;94869.97;;;10.27;53.33
9774;BME280;4926;42.670;23.316;2024-02-04T11:42:24;94888.97;;;10.37;54.00
9774;BME280;4926;42.670;23.316;2024-02-04T11:44:50;94889.00;;;10.39;53.44
9774;BME280;4926;42.670;23.316;2024-02-04T11:47:28;94883.63;;;10.51;53.30
9774;BME280;4926;42.670;23.316;2024-02-04T11:49:57;94879.44;;;10.50;53.01
9774;BME280;4926;42.670;23.316;2024-02-04T11:52:23;94861.34;;;10.51;53.48
9774;BME280;4926;42.670;23.316;2024-02-04T11:54:52;94843.22;;;10.52;53.55
9774;BME280;4926;42.670;23.316;2024-02-04T11:57:17;94838.38;;;10.52;52.07
9774;BME280;4926;42.670;23.316;2024-02-04T11:59:43;94829.97;;;10.50;52.87
9774;BME280;4926;42.670;23.316;2024-02-04T12:02:10;94821.06;;;10.60;52.86
9774;BME280;4926;42.670;23.316;2024-02-04T12:04:37;94821.25;;;10.72;52.10
9774;BME280;4926;42.670;23.316;2024-02-04T12:07:08;94815.75;;;10.78;52.69
9774;BME280;4926;42.670;23.316;2024-02-04T12:09:35;94827.03;;;10.86;51.41
9774;BME280;4926;42.670;23.316;2024-02-04T12:12:00;94829.25;;;10.96;51.46
9774;BME280;4926;42.670;23.316;2024-02-04T12:14:27;94839.97;;;11.12;50.84
9774;BME280;4926;42.670;23.316;2024-02-04T12:16:52;94833.03;;;11.15;50.70
9774;BME280;4926;42.670;23.316;2024-02-04T12:19:18;94840.00;;;11.14;50.66
9774;BME280;4926;42.670;23.316;2024-02-04T12:21:44;94823.31;;;11.18;50.96
9774;BME280;4926;42.670;23.316;2024-02-04T12:24:09;94829.06;;;11.30;50.08
9774;BME280;4926;42.670;23.316;2024-02-04T12:26:38;94824.94;;;11.35;50.65
9774;BME280;4926;42.670;23.316;2024-02-04T12:29:04;94823.56;;;11.36;49.51
9774;BME280;4926;42.670;23.316;2024-02-04T12:31:34;94814.56;;;11.42;49.83
9774;BME280;4926;42.670;23.316;2024-02-04T12:34:00;94817.44;;;11.48;49.93
9774;BME280;4926;42.670;23.316;2024-02-04T12:36:44;94823.06;;;11.52;48.98
9774;BME280;4926;42.670;23.316;2024-02-04T12:39:10;94815.34;;;11.48;49.37
9774;BME280;4926;42.670;23.316;2024-02-04T12:41:37;94819.47;;;11.43;49.76
9774;BME280;4926;42.670;23.316;2024-02-04T12:44:03;94818.69;;;11.38;48.69
9774;BME280;4926;42.670;23.316;2024-02-04T12:46:36;94811.66;;;11.33;48.71
9774;BME280;4926;42.670;23.316;2024-02-04T12:49:02;94817.09;;;11.23;48.68
9774;BME280;4926;42.670;23.316;2024-02-04T12:51:34;94825.31;;;11.11;48.90
9774;BME280;4926;42.670;23.316;2024-02-04T12:54:09;94820.44;;;11.12;48.96
9774;BME280;4926;42.670;23.316;2024-02-04T12:59:26;94817.31;;;10.89;49.79
9774;BME280;4926;42.670;23.316;2024-02-04T13:02:07;94818.63;;;10.84;49.68
9774;BME280;4926;42.670;23.316;2024-02-04T13:04:42;94827.00;;;10.84;50.59
9774;BME280;4926;42.670;23.316;2024-02-04T13:07:08;94811.78;;;10.91;50.70
9774;BME280;4926;42.670;23.316;2024-02-04T13:09:43;94814.59;;;10.93;50.96
9774;BME280;4926;42.670;23.316;2024-02-04T13:12:14;94809.56;;;10.84;50.72
9774;BME280;4926;42.670;23.316;2024-02-04T13:14:48;94824.19;;;10.82;50.24
9774;BME280;4926;42.670;23.316;2024-02-04T13:17:14;94837.41;;;10.80;50.17
9774;BME280;4926;42.670;23.316;2024-02-04T13:19:40;94822.53;;;10.67;51.31
9774;BME280;4926;42.670;23.316;2024-02-04T13:22:07;94837.91;;;10.68;51.07
9774;BME280;4926;42.670;23.316;2024-02-04T13:24:35;94836.53;;;10.69;50.76
9774;BME280;4926;42.670;23.316;2024-02-04T13:27:01;94831.16;;;10.83;50.70
9774;BME280;4926;42.670;23.316;2024-02-04T13:29:29;94843.22;;;10.96;50.44
9774;BME280;4926;42.670;23.316;2024-02-04T13:31:55;94859.38;;;11.04;50.12
9774;BME280;4926;42.670;23.316;2024-02-04T13:34:21;94849.63;;;11.05;50.21